sensor_id;sensor_type;location;lat;lon;timestamp;temperature;humidity
11744;DHT22;5929;51.906;7.674;2023-12-04T00:02:18;0.40;99.90
11744;DHT22;5929;51.906;7.674;2023-12-04T00:04:44;0.40;99.90
11744;DHT22;5929;51.906;7.674;2023-12-04T00:07:11;0.40;99.90
11744;DHT22;5929;51.906;7.674;2023-12-04T00:09:38;0.40;99.90
11744;DHT22;5929;51.906;7.674;2023-12-04T00:12:05;0.50;99.90
11744;DHT22;5929;51.906;7.674;2023-12-04T00:14:32;0.50;99.90
11744;DHT22;5929;51.906;7.674;2023-12-04T00:17:03;0.40;99.90
11744;DHT22;5929;51.906;7.674;2023-12-04T00:19:32;0.50;99.90
11744;DHT22;5929;51.906;7.674;2023-12-04T00:21:58;0.40;99.90
11744;DHT22;5929;51.906;7.674;2023-12-04T00:24:25;0.50;99.90
11744;DHT22;5929;51.906;7.674;2023-12-04T00:26:52;0.50;99.90
11744;DHT22;5929;51.906;7.674;2023-12-04T00:29:19;0.50;99.90
11744;DHT22;5929;51.906;7.674;2023-12-04T00:31:45;0.50;99.90
11744;DHT22;5929;51.906;7.674;2023-12-04T00:34:14;0.50;99.90
11744;DHT22;5929;51.906;7.674;2023-12-04T00:36:40;0.50;99.90
11744;DHT22;5929;51.906;7.674;2023-12-04T00:39:07;0.50;99.90
11744;DHT22;5929;51.906;7.674;2023-12-04T00:41:34;0.60;99.90
11744;DHT22;5929;51.906;7.674;2023-12-04T00:44:01;0.60;99.90
11744;DHT22;5929;51.906;7.674;2023-12-04T00:46:28;0.50;99.90
11744;DHT22;5929;51.906;7.674;2023-12-04T00:48:54;0.50;99.90
11744;DHT22;5929;51.906;7.674;2023-12-04T00:51:23;0.50;99.90
11744;DHT22;5929;51.906;7.674;2023-12-04T00:53:49;0.40;99.90
11744;DHT22;5929;51.906;7.674;2023-12-04T00:56:18;0.50;99.90
11744;DHT22;5929;51.906;7.674;2023-12-04T00:58:46;0.50;99.90
11744;DHT22;5929;51.906;7.674;2023-12-04T01:01:15;0.50;99.90
11744;DHT22;5929;51.906;7.674;2023-12-04T01:03:42;0.50;99.90
11744;DHT22;5929;51.906;7.674;2023-12-04T01:06:20;0.50;99.90
11744;DHT22;5929;51.906;7.674;2023-12-04T01:08:48;0.50;99.90
11744;DHT22;5929;51.906;7.674;2023-12-04T01:11:16;0.50;99.90
11744;DHT22;5929;51.906;7.674;2023-12-04T01:13:45;0.50;99.90
11744;DHT22;5929;51.906;7.674;2023-12-04T01:16:14;0.50;99.90
11744;DHT22;5929;51.906;7.674;2023-12-04T01:18:41;0.50;99.90
11744;DHT22;5929;51.906;7.674;2023-12-04T01:21:08;0.50;99.90
11744;DHT22;5929;51.906;7.674;2023-12-04T01:23:35;0.50;99.90
11744;DHT22;5929;51.906;7.674;2023-12-04T01:26:04;0.50;99.90
11744;DHT22;5929;51.906;7.674;2023-12-04T01:28:31;0.50;99.90
11744;DHT22;5929;51.906;7.674;2023-12-04T01:30:58;0.50;99.90
11744;DHT22;5929;51.906;7.674;2023-12-04T01:33:24;0.40;99.90
11744;DHT22;5929;51.906;7.674;2023-12-04T01:35:51;0.50;99.90
11744;DHT22;5929;51.906;7.674;2023-12-04T01:38:18;0.50;99.90
11744;DHT22;5929;51.906;7.674;2023-12-04T01:40:45;0.40;99.90
11744;DHT22;5929;51.906;7.674;2023-12-04T01:43:13;0.40;99.90
11744;DHT22;5929;51.906;7.674;2023-12-04T01:45:40;0.40;99.90
11744;DHT22;5929;51.906;7.674;2023-12-04T01:48:08;0.40;99.90
11744;DHT22;5929;51.906;7.674;2023-12-04T01:50:35;0.40;99.90
11744;DHT22;5929;51.906;7.674;2023-12-04T01:53:02;0.40;99.90
11744;DHT22;5929;51.906;7.674;2023-12-04T01:55:30;0.40;99.90
11744;DHT22;5929;51.906;7.674;2023-12-04T01:58:02;0.40;99.90
11744;DHT22;5929;51.906;7.674;2023-12-04T02:00:30;0.40;99.90
11744;DHT22;5929;51.906;7.674;2023-12-04T02:02:58;0.40;99.90
11744;DHT22;5929;51.906;7.674;2023-12-04T02:05:28;0.50;99.90
11744;DHT22;5929;51.906;7.674;2023-12-04T02:07:55;0.40;99.90
11744;DHT22;5929;51.906;7.674;2023-12-04T02:10:22;0.40;99.90
11744;DHT22;5929;51.906;7.674;2023-12-04T02:12:49;0.50;99.90
11744;DHT22;5929;51.906;7.674;2023-12-04T02:15:16;0.40;99.90
11744;DHT22;5929;51.906;7.674;2023-12-04T02:17:44;0.40;99.90
11744;DHT22;5929;51.906;7.674;2023-12-04T02:20:14;0.40;99.90
11744;DHT22;5929;51.906;7.674;2023-12-04T02:22:41;0.40;99.90
11744;DHT22;5929;51.906;7.674;2023-12-04T02:25:10;0.40;99.90
11744;DHT22;5929;51.906;7.674;2023-12-04T02:27:40;0.40;99.90
11744;DHT22;5929;51.906;7.674;2023-12-04T02:30:11;0.40;99.90
11744;DHT22;5929;51.906;7.674;2023-12-04T02:32:44;0.40;99.90
11744;DHT22;5929;51.906;7.674;2023-12-04T02:35:13;0.40;99.90
11744;DHT22;5929;51.906;7.674;2023-12-04T02:37:41;0.40;99.90
11744;DHT22;5929;51.906;7.674;2023-12-04T02:40:11;0.40;99.90
11744;DHT22;5929;51.906;7.674;2023-12-04T02:42:39;0.40;99.90
11744;DHT22;5929;51.906;7.674;2023-12-04T02:45:07;0.40;99.90
11744;DHT22;5929;51.906;7.674;2023-12-04T02:47:34;0.40;99.90
11744;DHT22;5929;51.906;7.674;2023-12-04T02:50:01;0.40;99.90
11744;DHT22;5929;51.906;7.674;2023-12-04T02:52:28;0.30;99.90
11744;DHT22;5929;51.906;7.674;2023-12-04T02:54:54;0.30;99.90
11744;DHT22;5929;51.906;7.674;2023-12-04T02:57:22;0.30;99.90
11744;DHT22;5929;51.906;7.674;2023-12-04T02:59:49;0.30;99.90
11744;DHT22;5929;51.906;7.674;2023-12-04T03:02:16;0.30;99.90
11744;DHT22;5929;51.906;7.674;2023-12-04T03:04:43;0.30;99.90
11744;DHT22;5929;51.906;7.674;2023-12-04T03:07:10;0.30;99.90
11744;DHT22;5929;51.906;7.674;2023-12-04T03:09:37;0.30;99.90
11744;DHT22;5929;51.906;7.674;2023-12-04T03:12:06;0.30;99.90
11744;DHT22;5929;51.906;7.674;2023-12-04T03:14:34;0.20;99.90
11744;DHT22;5929;51.906;7.674;2023-12-04T03:17:01;0.20;99.90
11744;DHT22;5929;51.906;7.674;2023-12-04T03:19:30;0.20;99.90
11744;DHT22;5929;51.906;7.674;2023-12-04T03:21:57;0.20;99.90
11744;DHT22;5929;51.906;7.674;2023-12-04T03:24:24;0.20;99.90
11744;DHT22;5929;51.906;7.674;2023-12-04T03:26:50;0.20;99.90
11744;DHT22;5929;51.906;7.674;2023-12-04T03:29:18;0.20;99.90
11744;DHT22;5929;51.906;7.674;2023-12-04T03:31:46;0.20;99.90
11744;DHT22;5929;51.906;7.674;2023-12-04T03:34:13;0.20;99.90
11744;DHT22;5929;51.906;7.674;2023-12-04T03:36:39;0.20;99.90
11744;DHT22;5929;51.906;7.674;2023-12-04T03:39:06;0.10;99.90
11744;DHT22;5929;51.906;7.674;2023-12-04T03:41:33;0.20;99.90
11744;DHT22;5929;51.906;7.674;2023-12-04T03:44:00;0.20;99.90
11744;DHT22;5929;51.906;7.674;2023-12-04T03:46:26;0.20;99.90
11744;DHT22;5929;51.906;7.674;2023-12-04T03:48:55;0.20;99.90
11744;DHT22;5929;51.906;7.674;2023-12-04T03:51:22;0.20;99.90
11744;DHT22;5929;51.906;7.674;2023-12-04T03:53:48;0.20;99.90
11744;DHT22;5929;51.906;7.674;2023-12-04T03:56:15;0.20;99.90
11744;DHT22;5929;51.906;7.674;2023-12-04T03:58:42;0.30;99.90
11744;DHT22;5929;51.906;7.674;2023-12-04T04:01:09;0.20;99.90
11744;DHT22;5929;51.906;7.674;2023-12-04T04:03:36;0.20;99.90
11744;DHT22;5929;51.906;7.674;2023-12-04T04:06:04;0.20;99.90
11744;DHT22;5929;51.906;7.674;2023-12-04T04:08:32;0.20;99.90
11744;DHT22;5929;51.906;7.674;2023-12-04T04:10:59;0.20;99.90
11744;DHT22;5929;51.906;7.674;2023-12-04T04:13:26;0.20;99.90
11744;DHT22;5929;51.906;7.674;2023-12-04T04:15:52;0.20;99.90
11744;DHT22;5929;51.906;7.674;2023-12-04T04:18:19;0.20;99.90
11744;DHT22;5929;51.906;7.674;2023-12-04T04:20:46;0.30;99.90
11744;DHT22;5929;51.906;7.674;2023-12-04T04:23:14;0.30;99.90
11744;DHT22;5929;51.906;7.674;2023-12-04T04:25:41;0.20;99.90
11744;DHT22;5929;51.906;7.674;2023-12-04T04:28:08;0.20;99.90
11744;DHT22;5929;51.906;7.674;2023-12-04T04:30:35;0.10;99.90
11744;DHT22;5929;51.906;7.674;2023-12-04T04:33:01;0.10;99.90
11744;DHT22;5929;51.906;7.674;2023-12-04T04:35:30;0.10;99.90
11744;DHT22;5929;51.906;7.674;2023-12-04T04:37:57;0.10;99.90
11744;DHT22;5929;51.906;7.674;2023-12-04T04:40:26;0.10;99.90
11744;DHT22;5929;51.906;7.674;2023-12-04T04:42:52;0.10;99.90
11744;DHT22;5929;51.906;7.674;2023-12-04T04:45:20;0.20;99.90
11744;DHT22;5929;51.906;7.674;2023-12-04T04:47:46;0.20;99.90
11744;DHT22;5929;51.906;7.674;2023-12-04T04:50:13;0.20;99.90
11744;DHT22;5929;51.906;7.674;2023-12-04T04:52:40;0.20;99.90
11744;DHT22;5929;51.906;7.674;2023-12-04T04:55:09;0.20;99.90
11744;DHT22;5929;51.906;7.674;2023-12-04T04:57:37;0.30;99.90
11744;DHT22;5929;51.906;7.674;2023-12-04T05:00:05;0.30;99.90
11744;DHT22;5929;51.906;7.674;2023-12-04T05:02:32;0.30;99.90
11744;DHT22;5929;51.906;7.674;2023-12-04T05:05:02;0.40;99.90
11744;DHT22;5929;51.906;7.674;2023-12-04T05:07:29;0.40;99.90
11744;DHT22;5929;51.906;7.674;2023-12-04T05:09:56;0.40;99.90
11744;DHT22;5929;51.906;7.674;2023-12-04T05:12:23;0.40;99.90
11744;DHT22;5929;51.906;7.674;2023-12-04T05:14:51;0.40;99.90
11744;DHT22;5929;51.906;7.674;2023-12-04T05:17:18;0.40;99.90
11744;DHT22;5929;51.906;7.674;2023-12-04T05:19:44;0.40;99.90
11744;DHT22;5929;51.906;7.674;2023-12-04T05:22:11;0.30;99.90
11744;DHT22;5929;51.906;7.674;2023-12-04T05:24:38;0.30;99.90
11744;DHT22;5929;51.906;7.674;2023-12-04T05:27:07;0.40;99.90
11744;DHT22;5929;51.906;7.674;2023-12-04T05:29:34;0.30;99.90
11744;DHT22;5929;51.906;7.674;2023-12-04T05:32:02;0.30;99.90
11744;DHT22;5929;51.906;7.674;2023-12-04T05:34:30;0.30;99.90
11744;DHT22;5929;51.906;7.674;2023-12-04T05:36:57;0.40;99.90
11744;DHT22;5929;51.906;7.674;2023-12-04T05:39:24;0.40;99.90
11744;DHT22;5929;51.906;7.674;2023-12-04T05:41:51;0.40;99.90
11744;DHT22;5929;51.906;7.674;2023-12-04T05:44:18;0.40;99.90
11744;DHT22;5929;51.906;7.674;2023-12-04T05:46:44;0.50;99.90
11744;DHT22;5929;51.906;7.674;2023-12-04T05:49:13;0.50;99.90
11744;DHT22;5929;51.906;7.674;2023-12-04T05:51:39;0.50;99.90
11744;DHT22;5929;51.906;7.674;2023-12-04T05:54:06;0.60;99.90
11744;DHT22;5929;51.906;7.674;2023-12-04T05:56:34;0.60;99.90
11744;DHT22;5929;51.906;7.674;2023-12-04T05:59:01;0.50;99.90
11744;DHT22;5929;51.906;7.674;2023-12-04T06:01:31;0.60;99.90
11744;DHT22;5929;51.906;7.674;2023-12-04T06:03:57;0.50;99.90
11744;DHT22;5929;51.906;7.674;2023-12-04T06:06:26;0.50;99.90
11744;DHT22;5929;51.906;7.674;2023-12-04T06:08:53;0.50;99.90
11744;DHT22;5929;51.906;7.674;2023-12-04T06:11:19;0.50;99.90
11744;DHT22;5929;51.906;7.674;2023-12-04T06:13:46;0.50;99.90
11744;DHT22;5929;51.906;7.674;2023-12-04T06:16:14;0.50;99.90
11744;DHT22;5929;51.906;7.674;2023-12-04T06:18:41;0.50;99.90
11744;DHT22;5929;51.906;7.674;2023-12-04T06:21:08;0.40;99.90
11744;DHT22;5929;51.906;7.674;2023-12-04T06:23:36;0.40;99.90
11744;DHT22;5929;51.906;7.674;2023-12-04T06:26:07;0.30;99.90
11744;DHT22;5929;51.906;7.674;2023-12-04T06:28:34;0.30;99.90
11744;DHT22;5929;51.906;7.674;2023-12-04T06:31:02;0.30;99.90
11744;DHT22;5929;51.906;7.674;2023-12-04T06:33:29;0.20;99.90
11744;DHT22;5929;51.906;7.674;2023-12-04T06:35:57;0.20;99.90
11744;DHT22;5929;51.906;7.674;2023-12-04T06:38:24;0.20;99.90
11744;DHT22;5929;51.906;7.674;2023-12-04T06:40:56;0.20;99.90
11744;DHT22;5929;51.906;7.674;2023-12-04T06:43:23;0.20;99.90
11744;DHT22;5929;51.906;7.674;2023-12-04T06:45:50;0.20;99.90
11744;DHT22;5929;51.906;7.674;2023-12-04T06:48:17;0.20;99.90
11744;DHT22;5929;51.906;7.674;2023-12-04T06:50:45;0.20;99.90
11744;DHT22;5929;51.906;7.674;2023-12-04T06:53:12;0.20;99.90
11744;DHT22;5929;51.906;7.674;2023-12-04T06:55:39;0.30;99.90
11744;DHT22;5929;51.906;7.674;2023-12-04T06:58:09;0.30;99.90
11744;DHT22;5929;51.906;7.674;2023-12-04T07:00:36;0.30;99.90
11744;DHT22;5929;51.906;7.674;2023-12-04T07:03:03;0.30;99.90
11744;DHT22;5929;51.906;7.674;2023-12-04T07:05:30;0.40;99.90
11744;DHT22;5929;51.906;7.674;2023-12-04T07:07:57;0.30;99.90
11744;DHT22;5929;51.906;7.674;2023-12-04T07:10:23;0.40;99.90
11744;DHT22;5929;51.906;7.674;2023-12-04T07:12:50;0.40;99.90
11744;DHT22;5929;51.906;7.674;2023-12-04T07:15:18;0.40;99.90
11744;DHT22;5929;51.906;7.674;2023-12-04T07:17:47;0.40;99.90
11744;DHT22;5929;51.906;7.674;2023-12-04T07:20:14;0.40;99.90
11744;DHT22;5929;51.906;7.674;2023-12-04T07:22:41;0.40;99.90
11744;DHT22;5929;51.906;7.674;2023-12-04T07:25:08;0.40;99.90
11744;DHT22;5929;51.906;7.674;2023-12-04T07:27:35;0.40;99.90
11744;DHT22;5929;51.906;7.674;2023-12-04T07:30:03;0.40;99.90
11744;DHT22;5929;51.906;7.674;2023-12-04T07:32:31;0.40;99.90
11744;DHT22;5929;51.906;7.674;2023-12-04T07:34:58;0.50;99.90
11744;DHT22;5929;51.906;7.674;2023-12-04T07:37:25;0.50;99.90
11744;DHT22;5929;51.906;7.674;2023-12-04T07:39:52;0.40;99.90
11744;DHT22;5929;51.906;7.674;2023-12-04T07:42:19;0.50;99.90
11744;DHT22;5929;51.906;7.674;2023-12-04T07:44:46;0.50;99.90
11744;DHT22;5929;51.906;7.674;2023-12-04T07:47:12;0.50;99.90
11744;DHT22;5929;51.906;7.674;2023-12-04T07:49:43;0.50;99.90
11744;DHT22;5929;51.906;7.674;2023-12-04T07:52:10;0.50;99.90
11744;DHT22;5929;51.906;7.674;2023-12-04T07:54:37;0.50;99.90
11744;DHT22;5929;51.906;7.674;2023-12-04T07:57:04;0.50;99.90
11744;DHT22;5929;51.906;7.674;2023-12-04T07:59:31;0.50;99.90
11744;DHT22;5929;51.906;7.674;2023-12-04T08:01:58;0.60;99.90
11744;DHT22;5929;51.906;7.674;2023-12-04T08:08:05;0.60;99.90
11744;DHT22;5929;51.906;7.674;2023-12-04T08:10:32;0.60;99.90
11744;DHT22;5929;51.906;7.674;2023-12-04T08:12:59;0.60;99.90
11744;DHT22;5929;51.906;7.674;2023-12-04T08:15:26;0.60;99.90
11744;DHT22;5929;51.906;7.674;2023-12-04T08:17:52;0.60;99.90
11744;DHT22;5929;51.906;7.674;2023-12-04T08:20:21;0.60;99.90
11744;DHT22;5929;51.906;7.674;2023-12-04T08:22:49;0.70;99.90
11744;DHT22;5929;51.906;7.674;2023-12-04T08:25:17;0.70;99.90
11744;DHT22;5929;51.906;7.674;2023-12-04T08:27:44;0.80;99.90
11744;DHT22;5929;51.906;7.674;2023-12-04T08:30:11;0.80;99.90
11744;DHT22;5929;51.906;7.674;2023-12-04T08:32:38;0.80;99.90
11744;DHT22;5929;51.906;7.674;2023-12-04T08:35:05;0.80;99.90
11744;DHT22;5929;51.906;7.674;2023-12-04T08:37:32;0.80;99.90
11744;DHT22;5929;51.906;7.674;2023-12-04T08:39:59;0.90;99.90
11744;DHT22;5929;51.906;7.674;2023-12-04T08:42:27;0.90;99.90
11744;DHT22;5929;51.906;7.674;2023-12-04T08:44:54;0.90;99.90
11744;DHT22;5929;51.906;7.674;2023-12-04T08:47:21;0.90;99.90
11744;DHT22;5929;51.906;7.674;2023-12-04T08:49:48;0.90;99.90
11744;DHT22;5929;51.906;7.674;2023-12-04T08:52:15;0.90;99.90
11744;DHT22;5929;51.906;7.674;2023-12-04T08:54:42;1.00;99.90
11744;DHT22;5929;51.906;7.674;2023-12-04T08:57:09;1.00;99.90
11744;DHT22;5929;51.906;7.674;2023-12-04T08:59:37;1.00;99.90
11744;DHT22;5929;51.906;7.674;2023-12-04T09:02:04;1.00;99.90
11744;DHT22;5929;51.906;7.674;2023-12-04T09:04:31;1.00;99.90
11744;DHT22;5929;51.906;7.674;2023-12-04T09:06:58;1.00;99.90
11744;DHT22;5929;51.906;7.674;2023-12-04T09:09:24;1.00;99.90
11744;DHT22;5929;51.906;7.674;2023-12-04T09:11:51;1.00;99.90
11744;DHT22;5929;51.906;7.674;2023-12-04T09:14:18;1.10;99.90
11744;DHT22;5929;51.906;7.674;2023-12-04T09:16:46;1.10;99.90
11744;DHT22;5929;51.906;7.674;2023-12-04T09:19:13;1.10;99.90
11744;DHT22;5929;51.906;7.674;2023-12-04T09:21:40;1.20;99.90
11744;DHT22;5929;51.906;7.674;2023-12-04T09:24:06;1.10;99.90
11744;DHT22;5929;51.906;7.674;2023-12-04T09:26:33;1.10;99.90
11744;DHT22;5929;51.906;7.674;2023-12-04T09:29:00;1.20;99.90
11744;DHT22;5929;51.906;7.674;2023-12-04T09:31:28;1.20;99.90
11744;DHT22;5929;51.906;7.674;2023-12-04T09:33:56;1.20;99.90
11744;DHT22;5929;51.906;7.674;2023-12-04T09:36:23;1.20;99.90
11744;DHT22;5929;51.906;7.674;2023-12-04T09:38:49;1.20;99.90
11744;DHT22;5929;51.906;7.674;2023-12-04T09:41:16;1.20;99.90
11744;DHT22;5929;51.906;7.674;2023-12-04T09:43:46;1.20;99.90
11744;DHT22;5929;51.906;7.674;2023-12-04T09:46:16;1.20;99.90
11744;DHT22;5929;51.906;7.674;2023-12-04T09:48:44;1.30;99.90
11744;DHT22;5929;51.906;7.674;2023-12-04T09:51:14;1.20;99.90
11744;DHT22;5929;51.906;7.674;2023-12-04T09:53:42;1.20;99.90
11744;DHT22;5929;51.906;7.674;2023-12-04T09:56:10;1.20;99.90
11744;DHT22;5929;51.906;7.674;2023-12-04T09:58:39;1.20;99.90
11744;DHT22;5929;51.906;7.674;2023-12-04T10:01:07;1.30;99.90
11744;DHT22;5929;51.906;7.674;2023-12-04T10:03:34;1.30;99.90
11744;DHT22;5929;51.906;7.674;2023-12-04T10:06:01;1.30;99.90
11744;DHT22;5929;51.906;7.674;2023-12-04T10:08:31;1.30;99.90
11744;DHT22;5929;51.906;7.674;2023-12-04T10:10:58;1.30;99.90
11744;DHT22;5929;51.906;7.674;2023-12-04T10:13:27;1.30;99.90
11744;DHT22;5929;51.906;7.674;2023-12-04T10:15:53;1.40;99.90
11744;DHT22;5929;51.906;7.674;2023-12-04T10:18:28;1.40;99.90
11744;DHT22;5929;51.906;7.674;2023-12-04T10:20:58;1.40;99.90
11744;DHT22;5929;51.906;7.674;2023-12-04T10:23:37;1.30;99.90
11744;DHT22;5929;51.906;7.674;2023-12-04T10:26:04;1.30;99.90
11744;DHT22;5929;51.906;7.674;2023-12-04T10:28:32;1.30;99.90
11744;DHT22;5929;51.906;7.674;2023-12-04T10:31:02;1.30;99.90
11744;DHT22;5929;51.906;7.674;2023-12-04T10:33:34;1.30;99.90
11744;DHT22;5929;51.906;7.674;2023-12-04T10:36:10;1.30;99.90
11744;DHT22;5929;51.906;7.674;2023-12-04T10:38:39;1.30;99.90
11744;DHT22;5929;51.906;7.674;2023-12-04T10:41:12;1.30;99.90
11744;DHT22;5929;51.906;7.674;2023-12-04T10:43:46;1.30;99.90
11744;DHT22;5929;51.906;7.674;2023-12-04T10:46:14;1.30;99.90
11744;DHT22;5929;51.906;7.674;2023-12-04T10:48:44;1.30;99.90
11744;DHT22;5929;51.906;7.674;2023-12-04T10:51:12;1.30;99.90
11744;DHT22;5929;51.906;7.674;2023-12-04T10:53:40;1.30;99.90
11744;DHT22;5929;51.906;7.674;2023-12-04T10:56:09;1.30;99.90
11744;DHT22;5929;51.906;7.674;2023-12-04T10:58:39;1.30;99.90
11744;DHT22;5929;51.906;7.674;2023-12-04T11:01:09;1.30;99.90
11744;DHT22;5929;51.906;7.674;2023-12-04T11:03:43;1.30;99.90
11744;DHT22;5929;51.906;7.674;2023-12-04T11:06:12;1.30;99.90
11744;DHT22;5929;51.906;7.674;2023-12-04T11:08:42;1.30;99.90
11744;DHT22;5929;51.906;7.674;2023-12-04T11:11:12;1.30;99.90
11744;DHT22;5929;51.906;7.674;2023-12-04T11:13:43;1.40;99.90
11744;DHT22;5929;51.906;7.674;2023-12-04T11:16:14;1.40;99.90
11744;DHT22;5929;51.906;7.674;2023-12-04T11:18:44;1.50;99.90
11744;DHT22;5929;51.906;7.674;2023-12-04T11:21:13;1.50;99.90
11744;DHT22;5929;51.906;7.674;2023-12-04T11:23:42;1.50;99.90
11744;DHT22;5929;51.906;7.674;2023-12-04T11:26:10;1.50;99.90
11744;DHT22;5929;51.906;7.674;2023-12-04T11:28:38;1.50;99.90
11744;DHT22;5929;51.906;7.674;2023-12-04T11:31:06;1.50;99.90
11744;DHT22;5929;51.906;7.674;2023-12-04T11:33:34;1.60;99.90
11744;DHT22;5929;51.906;7.674;2023-12-04T11:36:07;1.50;99.90
11744;DHT22;5929;51.906;7.674;2023-12-04T11:38:35;1.60;99.90
11744;DHT22;5929;51.906;7.674;2023-12-04T11:41:14;1.60;99.90
11744;DHT22;5929;51.906;7.674;2023-12-04T11:43:42;1.60;99.90
11744;DHT22;5929;51.906;7.674;2023-12-04T11:46:09;1.70;99.90
11744;DHT22;5929;51.906;7.674;2023-12-04T11:48:39;1.70;99.90
11744;DHT22;5929;51.906;7.674;2023-12-04T11:51:06;1.70;99.90
11744;DHT22;5929;51.906;7.674;2023-12-04T11:53:37;1.70;99.90
11744;DHT22;5929;51.906;7.674;2023-12-04T11:56:11;1.70;99.90
11744;DHT22;5929;51.906;7.674;2023-12-04T11:58:44;1.70;99.90
11744;DHT22;5929;51.906;7.674;2023-12-04T12:01:11;1.80;99.90
11744;DHT22;5929;51.906;7.674;2023-12-04T12:03:38;1.80;99.90
11744;DHT22;5929;51.906;7.674;2023-12-04T12:06:06;2.00;99.90
11744;DHT22;5929;51.906;7.674;2023-12-04T12:08:33;2.00;99.90
11744;DHT22;5929;51.906;7.674;2023-12-04T12:11:00;2.10;99.90
11744;DHT22;5929;51.906;7.674;2023-12-04T12:13:29;2.10;99.90
11744;DHT22;5929;51.906;7.674;2023-12-04T12:15:56;2.10;99.90
11744;DHT22;5929;51.906;7.674;2023-12-04T12:18:26;2.10;99.90
11744;DHT22;5929;51.906;7.674;2023-12-04T12:20:55;2.10;99.90
11744;DHT22;5929;51.906;7.674;2023-12-04T12:23:22;2.20;99.90
11744;DHT22;5929;51.906;7.674;2023-12-04T12:25:49;2.10;99.90
11744;DHT22;5929;51.906;7.674;2023-12-04T12:28:16;2.10;99.90
11744;DHT22;5929;51.906;7.674;2023-12-04T12:30:44;2.00;99.90
11744;DHT22;5929;51.906;7.674;2023-12-04T12:33:13;2.00;99.90
11744;DHT22;5929;51.906;7.674;2023-12-04T12:35:39;2.10;99.90
11744;DHT22;5929;51.906;7.674;2023-12-04T12:38:06;2.10;99.90
11744;DHT22;5929;51.906;7.674;2023-12-04T12:40:34;2.10;99.90
11744;DHT22;5929;51.906;7.674;2023-12-04T12:43:05;2.10;99.90
11744;DHT22;5929;51.906;7.674;2023-12-04T12:45:38;2.20;99.90
11744;DHT22;5929;51.906;7.674;2023-12-04T12:48:10;2.10;99.90
11744;DHT22;5929;51.906;7.674;2023-12-04T12:50:37;2.20;99.90
11744;DHT22;5929;51.906;7.674;2023-12-04T12:53:04;2.10;99.90
11744;DHT22;5929;51.906;7.674;2023-12-04T12:55:31;2.20;99.90
11744;DHT22;5929;51.906;7.674;2023-12-04T12:57:58;2.20;99.90
11744;DHT22;5929;51.906;7.674;2023-12-04T13:00:24;2.30;99.90
11744;DHT22;5929;51.906;7.674;2023-12-04T13:02:55;2.30;99.90
11744;DHT22;5929;51.906;7.674;2023-12-04T13:05:26;2.30;99.90
11744;DHT22;5929;51.906;7.674;2023-12-04T13:07:52;2.20;99.90
11744;DHT22;5929;51.906;7.674;2023-12-04T13:10:21;2.20;99.90
11744;DHT22;5929;51.906;7.674;2023-12-04T13:12:49;2.10;99.90
11744;DHT22;5929;51.906;7.674;2023-12-04T13:15:18;2.10;99.90
11744;DHT22;5929;51.906;7.674;2023-12-04T13:17:44;2.00;99.90
11744;DHT22;5929;51.906;7.674;2023-12-04T13:20:11;2.00;99.90
11744;DHT22;5929;51.906;7.674;2023-12-04T13:22:40;2.00;99.90
11744;DHT22;5929;51.906;7.674;2023-12-04T13:25:07;1.90;99.90
11744;DHT22;5929;51.906;7.674;2023-12-04T13:27:35;2.00;99.90
11744;DHT22;5929;51.906;7.674;2023-12-04T13:30:05;2.00;99.90
11744;DHT22;5929;51.906;7.674;2023-12-04T13:32:32;2.00;99.90
11744;DHT22;5929;51.906;7.674;2023-12-04T13:34:59;2.00;99.90
11744;DHT22;5929;51.906;7.674;2023-12-04T13:37:26;1.90;99.90
11744;DHT22;5929;51.906;7.674;2023-12-04T13:39:55;2.00;99.90
11744;DHT22;5929;51.906;7.674;2023-12-04T13:42:23;2.00;99.90
11744;DHT22;5929;51.906;7.674;2023-12-04T13:45:08;2.00;99.90
11744;DHT22;5929;51.906;7.674;2023-12-04T13:47:36;1.90;99.90
11744;DHT22;5929;51.906;7.674;2023-12-04T13:50:04;1.90;99.90
11744;DHT22;5929;51.906;7.674;2023-12-04T13:52:32;1.80;99.90
11744;DHT22;5929;51.906;7.674;2023-12-04T13:55:01;1.80;99.90
11744;DHT22;5929;51.906;7.674;2023-12-04T13:57:36;1.80;99.90
11744;DHT22;5929;51.906;7.674;2023-12-04T14:00:15;1.80;99.90
11744;DHT22;5929;51.906;7.674;2023-12-04T14:02:42;1.80;99.90
11744;DHT22;5929;51.906;7.674;2023-12-04T14:05:09;1.80;99.90
11744;DHT22;5929;51.906;7.674;2023-12-04T14:07:43;1.90;99.90
11744;DHT22;5929;51.906;7.674;2023-12-04T14:10:11;2.00;99.90
11744;DHT22;5929;51.906;7.674;2023-12-04T14:12:41;2.00;99.90
11744;DHT22;5929;51.906;7.674;2023-12-04T14:15:09;2.00;99.90
11744;DHT22;5929;51.906;7.674;2023-12-04T14:17:35;2.00;99.90
11744;DHT22;5929;51.906;7.674;2023-12-04T14:20:06;2.10;99.90
11744;DHT22;5929;51.906;7.674;2023-12-04T14:22:39;2.10;99.90
11744;DHT22;5929;51.906;7.674;2023-12-04T14:25:06;2.10;99.90
11744;DHT22;5929;51.906;7.674;2023-12-04T14:27:35;2.10;99.90
11744;DHT22;5929;51.906;7.674;2023-12-04T14:30:06;2.20;99.90
11744;DHT22;5929;51.906;7.674;2023-12-04T14:32:34;2.20;99.90
11744;DHT22;5929;51.906;7.674;2023-12-04T14:35:01;2.20;99.90
11744;DHT22;5929;51.906;7.674;2023-12-04T14:37:28;2.20;99.90
11744;DHT22;5929;51.906;7.674;2023-12-04T14:39:55;2.20;99.90
11744;DHT22;5929;51.906;7.674;2023-12-04T14:42:22;2.10;99.90
11744;DHT22;5929;51.906;7.674;2023-12-04T14:44:51;2.20;99.90
11744;DHT22;5929;51.906;7.674;2023-12-04T14:47:18;2.20;99.90
11744;DHT22;5929;51.906;7.674;2023-12-04T14:49:44;2.20;99.90
11744;DHT22;5929;51.906;7.674;2023-12-04T14:52:13;2.20;99.90
11744;DHT22;5929;51.906;7.674;2023-12-04T14:54:41;2.30;99.90
11744;DHT22;5929;51.906;7.674;2023-12-04T14:57:36;2.30;99.90
11744;DHT22;5929;51.906;7.674;2023-12-04T15:00:24;2.30;99.90
11744;DHT22;5929;51.906;7.674;2023-12-04T15:03:17;2.30;99.90
11744;DHT22;5929;51.906;7.674;2023-12-04T15:05:58;2.30;99.90
11744;DHT22;5929;51.906;7.674;2023-12-04T15:08:53;2.30;99.90
11744;DHT22;5929;51.906;7.674;2023-12-04T15:11:46;2.30;99.90
11744;DHT22;5929;51.906;7.674;2023-12-04T15:14:40;2.20;99.90
11744;DHT22;5929;51.906;7.674;2023-12-04T15:17:13;2.20;99.90
11744;DHT22;5929;51.906;7.674;2023-12-04T15:19:54;2.20;99.90
11744;DHT22;5929;51.906;7.674;2023-12-04T15:22:42;2.10;99.90
11744;DHT22;5929;51.906;7.674;2023-12-04T15:25:12;2.10;99.90
11744;DHT22;5929;51.906;7.674;2023-12-04T15:27:39;2.00;99.90
11744;DHT22;5929;51.906;7.674;2023-12-04T15:30:06;1.90;99.90
11744;DHT22;5929;51.906;7.674;2023-12-04T15:32:35;1.80;99.90
11744;DHT22;5929;51.906;7.674;2023-12-04T15:35:05;1.70;99.90
11744;DHT22;5929;51.906;7.674;2023-12-04T15:37:31;1.70;99.90
11744;DHT22;5929;51.906;7.674;2023-12-04T15:39:58;1.60;99.90
11744;DHT22;5929;51.906;7.674;2023-12-04T15:42:24;1.60;99.90
11744;DHT22;5929;51.906;7.674;2023-12-04T15:44:51;1.50;99.90
11744;DHT22;5929;51.906;7.674;2023-12-04T15:47:16;1.50;99.90
11744;DHT22;5929;51.906;7.674;2023-12-04T15:49:47;1.40;99.90
11744;DHT22;5929;51.906;7.674;2023-12-04T15:52:13;1.40;99.90
11744;DHT22;5929;51.906;7.674;2023-12-04T15:54:44;1.40;99.90
11744;DHT22;5929;51.906;7.674;2023-12-04T15:57:10;1.40;99.90
11744;DHT22;5929;51.906;7.674;2023-12-04T15:59:39;1.40;99.90
11744;DHT22;5929;51.906;7.674;2023-12-04T16:02:05;1.30;99.90
11744;DHT22;5929;51.906;7.674;2023-12-04T16:04:31;1.30;99.90
11744;DHT22;5929;51.906;7.674;2023-12-04T16:07:02;1.30;99.90
11744;DHT22;5929;51.906;7.674;2023-12-04T16:09:28;1.30;99.90
11744;DHT22;5929;51.906;7.674;2023-12-04T16:11:55;1.30;99.90
11744;DHT22;5929;51.906;7.674;2023-12-04T16:14:22;1.30;99.90